createdAt,value
2022-11-17T00:00:42.868Z,11.30
2022-11-17T00:03:16.682Z,11.30
2022-11-17T00:05:45.820Z,11.30
2022-11-17T00:08:12.724Z,11.30
2022-11-17T00:10:41.564Z,11.30
2022-11-17T00:13:29.575Z,11.40
2022-11-17T00:15:56.271Z,11.40
2022-11-17T00:18:41.404Z,11.40
2022-11-17T00:21:23.601Z,11.40
2022-11-17T00:23:50.922Z,11.40
2022-11-17T00:26:18.844Z,11.40
2022-11-17T00:28:45.654Z,11.40
2022-11-17T00:31:33.686Z,11.50
2022-11-17T00:34:06.763Z,11.50
2022-11-17T00:36:36.758Z,11.50
2022-11-17T00:39:04.512Z,11.50
2022-11-17T00:41:31.265Z,11.60
2022-11-17T00:43:58.068Z,11.60
2022-11-17T00:46:24.816Z,11.60
2022-11-17T00:48:53.884Z,11.60
2022-11-17T00:51:21.460Z,11.60
2022-11-17T00:53:50.823Z,11.60
2022-11-17T00:56:20.089Z,11.60
2022-11-17T00:58:46.837Z,11.60
2022-11-17T01:01:16.034Z,11.60
2022-11-17T01:03:42.785Z,11.70
2022-11-17T01:06:13.001Z,11.60
2022-11-17T01:08:42.770Z,11.60
2022-11-17T01:11:19.469Z,11.60
2022-11-17T01:13:48.023Z,11.50
2022-11-17T01:16:17.634Z,11.50
2022-11-17T01:18:46.327Z,11.50
2022-11-17T01:21:15.969Z,11.40
2022-11-17T01:23:46.532Z,11.30
2022-11-17T01:26:18.808Z,11.30
2022-11-17T01:28:45.633Z,11.30
2022-11-17T01:31:18.728Z,11.30
2022-11-17T01:33:46.695Z,11.30
2022-11-17T01:36:16.324Z,11.30
2022-11-17T01:38:48.375Z,11.40
2022-11-17T01:41:26.739Z,11.40
2022-11-17T01:43:58.278Z,11.40
2022-11-17T01:46:30.342Z,11.40
2022-11-17T01:49:25.411Z,11.40
2022-11-17T01:52:01.388Z,11.40
2022-11-17T01:54:30.034Z,11.40
2022-11-17T01:57:02.063Z,11.40
2022-11-17T01:59:38.811Z,11.40
2022-11-17T02:02:05.740Z,11.50
2022-11-17T02:04:49.781Z,11.50
2022-11-17T02:07:32.174Z,11.50
2022-11-17T02:10:01.458Z,11.60
2022-11-17T02:12:32.718Z,11.60
2022-11-17T02:15:03.493Z,11.60
2022-11-17T02:17:38.598Z,11.60
2022-11-17T02:20:15.129Z,11.60
2022-11-17T02:23:13.536Z,11.60
2022-11-17T02:26:04.897Z,11.60
2022-11-17T02:28:45.106Z,11.60
2022-11-17T02:31:27.137Z,11.60
2022-11-17T02:34:18.568Z,11.60
2022-11-17T02:37:09.200Z,11.60
2022-11-17T02:39:40.319Z,11.60
2022-11-17T02:42:45.884Z,11.60
2022-11-17T02:45:26.811Z,11.60
2022-11-17T02:47:57.906Z,11.60
2022-11-17T02:50:28.556Z,11.50
2022-11-17T02:52:59.253Z,11.50
2022-11-17T02:55:27.633Z,11.50
2022-11-17T02:57:54.331Z,11.50
2022-11-17T03:00:21.336Z,11.50
2022-11-17T03:03:29.564Z,11.50
2022-11-17T03:06:20.470Z,11.50
2022-11-17T03:09:31.040Z,11.50
2022-11-17T03:12:06.983Z,11.50
2022-11-17T03:14:35.780Z,11.50
2022-11-17T03:17:15.212Z,11.50
2022-11-17T03:19:46.067Z,11.50
2022-11-17T03:22:34.670Z,11.50
2022-11-17T03:25:06.671Z,11.50
2022-11-17T03:27:37.545Z,11.50
2022-11-17T03:30:09.579Z,11.50
2022-11-17T03:32:43.377Z,11.50
2022-11-17T03:35:14.555Z,11.50
2022-11-17T03:37:49.901Z,11.40
2022-11-17T03:40:21.603Z,11.40
2022-11-17T03:42:55.082Z,11.40
2022-11-17T03:45:24.600Z,11.30
2022-11-17T03:48:01.387Z,11.30
2022-11-17T03:50:30.338Z,11.30
2022-11-17T03:52:57.444Z,11.30
2022-11-17T03:55:27.468Z,11.30
2022-11-17T03:58:05.008Z,11.30
2022-11-17T04:00:34.370Z,11.20
2022-11-17T04:03:01.259Z,11.20
2022-11-17T04:05:30.395Z,11.20
2022-11-17T04:07:57.139Z,11.20
2022-11-17T04:10:27.699Z,11.20
2022-11-17T04:13:12.830Z,11.20
2022-11-17T04:15:58.965Z,11.20
2022-11-17T04:18:27.049Z,11.10
2022-11-17T04:20:55.735Z,11.10
2022-11-17T04:23:23.618Z,11.20
2022-11-17T04:26:15.024Z,11.10
2022-11-17T04:28:45.205Z,11.10
2022-11-17T04:31:19.415Z,11.10
2022-11-17T04:33:48.322Z,11.10
2022-11-17T04:36:18.449Z,11.10
2022-11-17T04:38:47.609Z,11.20
2022-11-17T04:41:34.180Z,11.20
2022-11-17T04:44:01.797Z,11.20
2022-11-17T04:46:32.463Z,11.30
2022-11-17T04:49:00.091Z,11.30
2022-11-17T04:51:28.403Z,11.30
2022-11-17T04:53:56.124Z,11.40
2022-11-17T04:56:24.299Z,11.40
2022-11-17T04:58:51.095Z,11.50
2022-11-17T05:01:18.936Z,11.50
2022-11-17T05:03:59.953Z,11.50
2022-11-17T05:06:28.000Z,11.40
2022-11-17T05:08:56.321Z,11.50
2022-11-17T05:11:43.429Z,11.50
2022-11-17T05:14:11.366Z,11.60
2022-11-17T05:16:56.537Z,11.60
2022-11-17T05:19:29.051Z,11.60
2022-11-17T05:21:56.400Z,11.60
2022-11-17T05:24:23.168Z,11.60
2022-11-17T05:26:50.729Z,11.60
2022-11-17T05:29:19.679Z,11.60
2022-11-17T05:31:47.128Z,11.60
2022-11-17T05:34:15.874Z,11.50
2022-11-17T05:36:42.863Z,11.50
2022-11-17T05:39:10.243Z,11.50
2022-11-17T05:41:37.350Z,11.50
2022-11-17T05:44:04.999Z,11.40
2022-11-17T05:46:31.976Z,11.40
2022-11-17T05:48:59.150Z,11.40
2022-11-17T05:51:26.196Z,11.30
2022-11-17T05:53:52.966Z,11.40
2022-11-17T05:56:49.657Z,11.30
2022-11-17T05:59:32.010Z,11.30
2022-11-17T06:02:10.149Z,11.30
2022-11-17T06:04:37.858Z,11.30
2022-11-17T06:07:04.688Z,11.20
2022-11-17T06:09:37.312Z,11.20
2022-11-17T06:12:06.467Z,11.20
2022-11-17T06:14:34.325Z,11.20
2022-11-17T06:17:05.837Z,11.20
2022-11-17T06:19:44.045Z,11.20
2022-11-17T06:22:12.731Z,11.10
2022-11-17T06:24:43.417Z,11.20
2022-11-17T06:27:12.527Z,11.20
2022-11-17T06:29:44.050Z,11.20
2022-11-17T06:32:13.383Z,11.20
2022-11-17T06:34:40.469Z,11.20
2022-11-17T06:37:07.113Z,11.10
2022-11-17T06:39:33.800Z,11.00
2022-11-17T06:42:00.471Z,11.00
2022-11-17T06:44:27.264Z,11.10
2022-11-17T06:46:53.962Z,11.10
2022-11-17T06:49:20.723Z,11.10
2022-11-17T06:51:47.428Z,11.10
2022-11-17T06:54:14.841Z,11.10
2022-11-17T06:56:42.306Z,11.10
2022-11-17T06:59:09.060Z,11.10
2022-11-17T07:01:37.460Z,11.20
2022-11-17T07:04:04.316Z,11.30
2022-11-17T07:06:31.928Z,11.20
2022-11-17T07:08:58.699Z,11.30
2022-11-17T07:11:25.502Z,11.30
2022-11-17T07:13:54.436Z,11.30
2022-11-17T07:16:23.836Z,11.20
2022-11-17T07:18:52.302Z,11.30
2022-11-17T07:21:19.268Z,11.30
2022-11-17T07:23:47.157Z,11.40
2022-11-17T07:26:16.178Z,11.40
2022-11-17T07:28:45.156Z,11.40
2022-11-17T07:31:12.270Z,11.30
2022-11-17T07:33:41.242Z,11.30
2022-11-17T07:36:10.384Z,11.40
2022-11-17T07:38:38.724Z,11.40
2022-11-17T07:41:07.069Z,11.30
2022-11-17T07:43:36.997Z,11.40
2022-11-17T07:46:11.645Z,11.40
2022-11-17T07:48:38.883Z,11.50
2022-11-17T07:51:06.569Z,11.50
2022-11-17T07:53:35.176Z,11.50
2022-11-17T07:56:10.573Z,11.50
2022-11-17T07:58:40.414Z,11.50
2022-11-17T08:01:15.625Z,11.60
2022-11-17T08:03:43.488Z,11.60
2022-11-17T08:06:11.614Z,11.60
2022-11-17T08:08:39.427Z,11.60
2022-11-17T08:11:11.379Z,11.60
2022-11-17T08:13:39.797Z,11.70
2022-11-17T08:16:07.545Z,11.70
2022-11-17T08:18:35.120Z,11.70
2022-11-17T08:21:04.709Z,11.80
2022-11-17T08:23:34.122Z,11.80
2022-11-17T08:26:02.464Z,11.80
2022-11-17T08:28:29.776Z,11.80
2022-11-17T08:30:56.582Z,11.90
2022-11-17T08:33:23.461Z,11.90
2022-11-17T08:35:50.203Z,11.90
2022-11-17T08:38:17.027Z,11.80
2022-11-17T08:40:43.952Z,12.00
2022-11-17T08:43:10.752Z,11.90
2022-11-17T08:45:40.518Z,12.00
2022-11-17T08:48:07.551Z,12.00
2022-11-17T08:50:35.035Z,12.00
2022-11-17T08:53:01.816Z,12.00
2022-11-17T08:55:28.663Z,12.00
2022-11-17T08:57:55.562Z,12.10
2022-11-17T09:00:22.413Z,12.20
2022-11-17T09:02:49.183Z,12.20
2022-11-17T09:05:16.005Z,12.30
2022-11-17T09:07:45.062Z,12.30
2022-11-17T09:10:12.254Z,12.30
2022-11-17T09:12:39.023Z,12.40
2022-11-17T09:15:08.421Z,12.40
2022-11-17T09:17:37.689Z,12.50
2022-11-17T09:20:04.788Z,12.50
2022-11-17T09:22:31.535Z,12.60
2022-11-17T09:24:58.196Z,12.60
2022-11-17T09:27:27.422Z,12.80
2022-11-17T09:29:54.135Z,12.90
2022-11-17T09:32:23.349Z,12.90
2022-11-17T09:34:50.332Z,12.90
2022-11-17T09:37:17.135Z,12.80
2022-11-17T09:39:46.217Z,12.80
2022-11-17T09:42:15.463Z,12.90
2022-11-17T09:45:04.913Z,12.90
2022-11-17T09:47:45.079Z,13.00
2022-11-17T09:50:27.208Z,13.10
2022-11-17T09:52:59.649Z,13.10
2022-11-17T09:55:35.335Z,13.10
2022-11-17T09:58:39.885Z,13.10
2022-11-17T10:01:10.705Z,13.10
2022-11-17T10:03:43.856Z,13.10
2022-11-17T10:06:19.961Z,13.10
2022-11-17T10:09:00.873Z,13.00
2022-11-17T10:11:34.131Z,13.00
2022-11-17T10:14:13.351Z,13.00
2022-11-17T10:17:06.381Z,13.00
2022-11-17T10:19:36.904Z,13.00
2022-11-17T10:22:06.380Z,13.00
2022-11-17T10:24:39.064Z,12.90
2022-11-17T10:27:19.476Z,12.90
2022-11-17T10:29:58.531Z,13.00
2022-11-17T10:32:26.832Z,13.00
2022-11-17T10:34:56.244Z,13.00
2022-11-17T10:37:27.327Z,13.00
2022-11-17T10:40:14.225Z,13.00
2022-11-17T10:42:44.683Z,13.10
2022-11-17T10:45:17.961Z,13.10
2022-11-17T10:47:44.741Z,13.20
2022-11-17T10:50:27.806Z,13.10
2022-11-17T10:53:15.780Z,13.10
2022-11-17T10:55:43.913Z,13.20
2022-11-17T10:58:25.471Z,13.20
2022-11-17T11:00:55.888Z,13.20
2022-11-17T11:03:31.128Z,13.20
2022-11-17T11:06:05.694Z,13.20
2022-11-17T11:08:57.144Z,13.10
2022-11-17T11:11:41.158Z,13.10
2022-11-17T11:14:33.668Z,13.00
2022-11-17T11:17:06.013Z,13.10
2022-11-17T11:19:32.712Z,13.10
2022-11-17T11:22:21.230Z,13.10
2022-11-17T11:25:04.414Z,13.10
2022-11-17T11:27:53.147Z,13.20
2022-11-17T11:30:20.485Z,13.30
2022-11-17T11:33:17.248Z,13.40
2022-11-17T11:36:16.153Z,13.40
2022-11-17T11:39:10.723Z,13.30
2022-11-17T11:42:07.892Z,13.30
2022-11-17T11:44:49.739Z,13.30
2022-11-17T11:47:16.436Z,13.30
2022-11-17T11:49:57.037Z,13.20
2022-11-17T11:52:30.886Z,13.20
2022-11-17T11:55:01.988Z,13.20
2022-11-17T11:57:42.662Z,13.20
2022-11-17T12:00:17.836Z,13.30
2022-11-17T12:02:55.117Z,13.30
2022-11-17T12:05:28.846Z,13.50
2022-11-17T12:08:15.653Z,13.70
2022-11-17T12:11:28.932Z,13.80
2022-11-17T12:13:57.362Z,13.70
2022-11-17T12:16:34.411Z,13.60
2022-11-17T12:19:01.885Z,13.70
2022-11-17T12:21:29.981Z,13.70
2022-11-17T12:24:05.829Z,13.70
2022-11-17T12:26:36.421Z,13.70
2022-11-17T12:29:21.360Z,13.70
2022-11-17T12:31:50.084Z,13.60
2022-11-17T12:34:25.094Z,13.60
2022-11-17T12:37:19.111Z,13.70
2022-11-17T12:39:59.195Z,13.90
2022-11-17T12:42:27.436Z,14.10
2022-11-17T12:45:14.560Z,14.40
2022-11-17T12:47:59.151Z,15.00
2022-11-17T12:50:44.731Z,15.20
2022-11-17T12:53:46.834Z,15.00
2022-11-17T12:56:22.921Z,14.80
2022-11-17T12:58:52.935Z,14.60
2022-11-17T13:01:44.019Z,14.40
2022-11-17T13:04:17.728Z,14.20
2022-11-17T13:07:01.304Z,14.20
2022-11-17T13:09:36.561Z,14.00
2022-11-17T13:12:07.804Z,14.00
2022-11-17T13:14:36.618Z,14.00
2022-11-17T13:17:04.044Z,14.00
2022-11-17T13:19:31.421Z,14.00
2022-11-17T13:22:02.355Z,14.00
2022-11-17T13:24:35.308Z,14.10
2022-11-17T13:27:04.185Z,14.20
2022-11-17T13:29:31.018Z,14.20
2022-11-17T13:32:20.212Z,14.20
2022-11-17T13:34:51.114Z,14.30
2022-11-17T13:37:22.780Z,14.30
2022-11-17T13:40:12.876Z,14.40
2022-11-17T13:42:39.800Z,14.50
2022-11-17T13:45:07.259Z,14.60
2022-11-17T13:47:36.960Z,14.60
2022-11-17T13:50:31.687Z,14.80
2022-11-17T13:53:20.837Z,14.80
2022-11-17T13:55:51.477Z,15.40
2022-11-17T13:58:26.464Z,16.00
2022-11-17T14:00:54.883Z,16.50
2022-11-17T14:03:37.769Z,16.50
2022-11-17T14:06:06.609Z,16.50
2022-11-17T14:08:34.565Z,16.90
2022-11-17T14:11:10.422Z,16.70
2022-11-17T14:13:52.570Z,16.20
2022-11-17T14:16:27.242Z,15.80
2022-11-17T14:19:03.982Z,15.20
2022-11-17T14:21:36.288Z,15.10
2022-11-17T14:24:07.114Z,14.80
2022-11-17T14:26:34.074Z,14.80
2022-11-17T14:29:02.887Z,14.70
2022-11-17T14:31:32.109Z,14.70
2022-11-17T14:33:58.851Z,14.70
2022-11-17T14:36:28.901Z,14.60
2022-11-17T14:38:55.756Z,14.40
2022-11-17T14:41:22.649Z,14.40
2022-11-17T14:43:50.410Z,14.30
2022-11-17T14:46:26.945Z,14.30
2022-11-17T14:48:54.446Z,14.20
2022-11-17T14:51:21.316Z,14.10
2022-11-17T14:53:48.968Z,14.10
2022-11-17T14:56:18.118Z,14.00
2022-11-17T14:58:46.797Z,14.10
2022-11-17T15:01:19.192Z,14.00
2022-11-17T15:03:46.734Z,14.00
2022-11-17T15:06:19.869Z,14.00
2022-11-17T15:08:47.331Z,13.90
2022-11-17T15:11:18.405Z,13.90
2022-11-17T15:13:47.386Z,13.90
2022-11-17T15:16:14.174Z,13.90
2022-11-17T15:18:45.599Z,13.90
2022-11-17T15:21:12.928Z,13.90
2022-11-17T15:23:40.829Z,13.90
2022-11-17T15:26:11.718Z,13.90
2022-11-17T15:28:38.502Z,13.90
2022-11-17T15:31:13.221Z,13.90
2022-11-17T15:33:41.301Z,13.90
2022-11-17T15:36:10.331Z,13.90
2022-11-17T15:38:38.143Z,13.80
2022-11-17T15:41:06.617Z,13.80
2022-11-17T15:43:36.502Z,13.80
2022-11-17T15:46:07.634Z,13.70
2022-11-17T15:48:38.827Z,13.60
2022-11-17T15:51:06.795Z,13.60
2022-11-17T15:53:38.458Z,13.50
2022-11-17T15:56:11.484Z,13.40
2022-11-17T15:58:39.852Z,13.40
2022-11-17T16:01:25.713Z,13.30
2022-11-17T16:03:57.217Z,13.20
2022-11-17T16:06:26.436Z,13.20
2022-11-17T16:08:53.475Z,13.20
2022-11-17T16:11:20.557Z,13.10
2022-11-17T16:13:56.238Z,13.00
2022-11-17T16:16:23.961Z,13.00
2022-11-17T16:18:50.713Z,13.00
2022-11-17T16:21:18.345Z,13.00
2022-11-17T16:23:52.512Z,13.00
2022-11-17T16:26:19.983Z,12.90
2022-11-17T16:28:46.970Z,12.90
2022-11-17T16:31:15.032Z,12.90
2022-11-17T16:33:52.382Z,12.80
2022-11-17T16:36:20.713Z,12.80
2022-11-17T16:39:00.719Z,12.80
2022-11-17T16:41:34.004Z,12.70
2022-11-17T16:44:09.685Z,12.70
2022-11-17T16:46:36.481Z,12.70
2022-11-17T16:49:06.293Z,12.70
2022-11-17T16:51:33.527Z,12.70
2022-11-17T16:54:02.820Z,12.60
2022-11-17T16:56:29.828Z,12.70
2022-11-17T16:58:56.800Z,12.70
2022-11-17T17:01:26.387Z,12.70
2022-11-17T17:04:01.341Z,12.60
2022-11-17T17:06:31.163Z,12.60
2022-11-17T17:09:01.153Z,12.50
2022-11-17T17:11:29.269Z,12.50
2022-11-17T17:13:59.013Z,12.50
2022-11-17T17:16:26.342Z,12.40
2022-11-17T17:19:00.857Z,12.50
2022-11-17T17:21:28.788Z,12.50
2022-11-17T17:23:56.648Z,12.50
2022-11-17T17:26:25.696Z,12.40
2022-11-17T17:28:55.759Z,12.50
2022-11-17T17:31:24.151Z,12.40
2022-11-17T17:33:51.858Z,12.40
2022-11-17T17:36:24.131Z,12.40
2022-11-17T17:38:55.937Z,12.30
2022-11-17T17:41:29.220Z,12.30
2022-11-17T17:43:59.159Z,12.20
2022-11-17T17:46:26.654Z,12.10
2022-11-17T17:48:53.468Z,12.20
2022-11-17T17:51:23.932Z,12.10
2022-11-17T17:53:51.494Z,12.10
2022-11-17T17:56:20.883Z,12.10
2022-11-17T17:58:51.768Z,12.10
2022-11-17T18:01:20.114Z,12.10
2022-11-17T18:03:49.309Z,12.10
2022-11-17T18:06:20.976Z,12.10
2022-11-17T18:08:48.776Z,12.10
2022-11-17T18:11:19.706Z,12.10
2022-11-17T18:13:48.664Z,12.10
2022-11-17T18:16:22.862Z,12.10
2022-11-17T18:18:50.857Z,12.10
2022-11-17T18:21:19.336Z,12.00
2022-11-17T18:23:46.391Z,11.90
2022-11-17T18:26:16.659Z,12.00
2022-11-17T18:28:49.115Z,11.90
2022-11-17T18:31:15.879Z,11.90
2022-11-17T18:33:45.284Z,11.80
2022-11-17T18:36:12.409Z,11.90
2022-11-17T18:38:39.260Z,11.90
2022-11-17T18:41:11.466Z,11.80
2022-11-17T18:43:43.761Z,11.80
2022-11-17T18:46:13.213Z,11.80
2022-11-17T18:48:42.021Z,11.80
2022-11-17T18:51:21.691Z,11.70
2022-11-17T18:53:52.869Z,11.80
2022-11-17T18:56:23.551Z,11.70
2022-11-17T18:58:50.718Z,11.70
2022-11-17T19:01:30.140Z,11.70
2022-11-17T19:04:00.728Z,11.70
2022-11-17T19:06:32.724Z,11.70
2022-11-17T19:09:00.379Z,11.70
2022-11-17T19:11:28.423Z,11.70
2022-11-17T19:13:55.141Z,11.70
2022-11-17T19:16:24.443Z,11.70
2022-11-17T19:18:56.065Z,11.70
2022-11-17T19:21:25.966Z,11.70
2022-11-17T19:23:54.591Z,11.70
2022-11-17T19:26:24.487Z,11.70
2022-11-17T19:28:55.743Z,11.70
2022-11-17T19:31:23.561Z,11.70
2022-11-17T19:33:50.478Z,11.70
2022-11-17T19:36:25.565Z,11.70
2022-11-17T19:38:54.150Z,11.70
2022-11-17T19:41:22.220Z,11.60
2022-11-17T19:43:53.982Z,11.70
2022-11-17T19:46:21.605Z,11.70
2022-11-17T19:48:48.481Z,11.80
2022-11-17T19:51:20.518Z,11.70
2022-11-17T19:53:54.550Z,11.60
2022-11-17T19:56:22.942Z,11.60
2022-11-17T19:58:50.722Z,11.60
2022-11-17T20:01:23.369Z,11.60
2022-11-17T20:03:50.825Z,11.60
2022-11-17T20:06:20.200Z,11.60
2022-11-17T20:08:47.621Z,11.60
2022-11-17T20:11:20.181Z,11.50
2022-11-17T20:13:49.582Z,11.50
2022-11-17T20:16:19.519Z,11.40
2022-11-17T20:18:52.462Z,11.50
2022-11-17T20:21:19.581Z,11.50
2022-11-17T20:23:47.460Z,11.50
2022-11-17T20:26:16.594Z,11.50
2022-11-17T20:28:43.490Z,11.50
2022-11-17T20:31:15.615Z,11.40
2022-11-17T20:33:44.307Z,11.40
2022-11-17T20:36:21.931Z,11.40
2022-11-17T20:38:55.541Z,11.40
2022-11-17T20:41:23.440Z,11.40
2022-11-17T20:43:52.373Z,11.40
2022-11-17T20:46:20.020Z,11.30
2022-11-17T20:48:46.892Z,11.40
2022-11-17T20:51:18.776Z,11.40
2022-11-17T20:53:53.603Z,11.30
2022-11-17T20:56:21.333Z,11.30
2022-11-17T20:58:48.246Z,11.20
2022-11-17T21:01:24.346Z,11.30
2022-11-17T21:03:51.413Z,11.30
2022-11-17T21:06:23.111Z,11.20
2022-11-17T21:08:50.711Z,11.20
2022-11-17T21:11:38.723Z,11.20
2022-11-17T21:14:08.412Z,11.20
2022-11-17T21:16:37.711Z,11.10
2022-11-17T21:19:05.030Z,11.10
2022-11-17T21:21:34.826Z,11.10
2022-11-17T21:24:02.302Z,11.20
2022-11-17T21:26:29.244Z,11.20
2022-11-17T21:29:00.458Z,11.10
2022-11-17T21:31:31.944Z,11.10
2022-11-17T21:34:01.045Z,11.10
2022-11-17T21:36:29.877Z,11.10
2022-11-17T21:38:59.321Z,11.10
2022-11-17T21:41:29.040Z,11.00
2022-11-17T21:43:59.738Z,11.00
2022-11-17T21:46:32.488Z,11.10
2022-11-17T21:49:00.529Z,11.00
2022-11-17T21:51:33.562Z,10.90
2022-11-17T21:54:05.314Z,10.90
2022-11-17T21:56:32.481Z,11.00
2022-11-17T21:59:01.457Z,11.00
2022-11-17T22:01:29.757Z,11.00
2022-11-17T22:03:56.946Z,10.90
2022-11-17T22:06:25.212Z,11.00
2022-11-17T22:08:56.403Z,10.90
2022-11-17T22:11:35.774Z,10.80
2022-11-17T22:14:13.124Z,10.80
2022-11-17T22:16:45.654Z,10.70
2022-11-17T22:19:14.576Z,10.70
2022-11-17T22:21:43.212Z,10.70
2022-11-17T22:24:12.230Z,10.80
2022-11-17T22:26:44.173Z,10.70
2022-11-17T22:29:21.607Z,10.70
2022-11-17T22:31:51.223Z,10.80
2022-11-17T22:34:19.664Z,10.80
2022-11-17T22:36:47.082Z,10.80
2022-11-17T22:39:16.657Z,10.80
2022-11-17T22:41:43.842Z,10.80
2022-11-17T22:44:14.127Z,10.90
2022-11-17T22:46:43.166Z,10.90
2022-11-17T22:49:12.938Z,10.80
2022-11-17T22:51:58.216Z,10.80
2022-11-17T22:54:27.695Z,10.90
2022-11-17T22:56:54.587Z,10.90
2022-11-17T22:59:24.032Z,10.90
2022-11-17T23:01:51.010Z,10.90
2022-11-17T23:04:19.942Z,10.90
2022-11-17T23:06:46.967Z,10.90
2022-11-17T23:09:14.278Z,10.90
2022-11-17T23:11:42.567Z,10.90
2022-11-17T23:14:12.461Z,10.80
2022-11-17T23:16:39.888Z,10.80
2022-11-17T23:19:09.585Z,10.80
2022-11-17T23:21:36.462Z,10.80
2022-11-17T23:24:04.450Z,10.80
2022-11-17T23:26:31.318Z,10.80
2022-11-17T23:28:58.325Z,10.80
2022-11-17T23:31:27.880Z,10.90
2022-11-17T23:33:54.761Z,10.90
2022-11-17T23:36:22.435Z,10.90
2022-11-17T23:38:50.566Z,10.90
2022-11-17T23:41:20.789Z,10.90
2022-11-17T23:43:51.845Z,10.80
2022-11-17T23:46:20.347Z,10.80
2022-11-17T23:48:50.571Z,10.80
2022-11-17T23:51:20.525Z,10.80
2022-11-17T23:53:49.943Z,10.80
2022-11-17T23:56:18.980Z,10.80
2022-11-17T23:58:45.983Z,10.80
